sensor_id;sensor_type;location;lat;lon;timestamp;P1;durP1;ratioP1;P2;durP2;ratioP2
52396;SDS011;38322;53.108;6.308;2024-03-02T06:02:31;2.70;;;0.40;;
52396;SDS011;38322;53.108;6.308;2024-03-02T06:04:57;2.42;;;0.50;;
52396;SDS011;38322;53.108;6.308;2024-03-02T06:07:23;1.08;;;0.50;;
52396;SDS011;38322;53.108;6.308;2024-03-02T06:09:48;1.50;;;0.47;;
52396;SDS011;38322;53.108;6.308;2024-03-02T06:12:16;0.68;;;0.30;;
52396;SDS011;38322;53.108;6.308;2024-03-02T06:14:43;0.80;;;0.10;;
52396;SDS011;38322;53.108;6.308;2024-03-02T06:17:09;1.58;;;0.15;;
52396;SDS011;38322;53.108;6.308;2024-03-02T06:19:34;3.13;;;0.10;;
52396;SDS011;38322;53.108;6.308;2024-03-02T06:22:00;0.90;;;0.35;;
52396;SDS011;38322;53.108;6.308;2024-03-02T06:24:26;0.20;;;0.10;;
52396;SDS011;38322;53.108;6.308;2024-03-02T06:26:52;0.32;;;0.10;;
52396;SDS011;38322;53.108;6.308;2024-03-02T06:29:18;0.75;;;0.10;;
52396;SDS011;38322;53.108;6.308;2024-03-02T06:31:43;0.30;;;0.15;;
52396;SDS011;38322;53.108;6.308;2024-03-02T06:34:09;2.25;;;0.17;;
52396;SDS011;38322;53.108;6.308;2024-03-02T06:36:35;0.38;;;0.20;;
52396;SDS011;38322;53.108;6.308;2024-03-02T06:39:01;0.32;;;0.10;;
52396;SDS011;38322;53.108;6.308;2024-03-02T06:41:27;0.63;;;0.52;;
52396;SDS011;38322;53.108;6.308;2024-03-02T06:43:52;0.88;;;0.30;;
52396;SDS011;38322;53.108;6.308;2024-03-02T06:46:24;0.40;;;0.10;;
52396;SDS011;38322;53.108;6.308;2024-03-02T06:48:50;0.10;;;0.00;;
52396;SDS011;38322;53.108;6.308;2024-03-02T06:51:16;3.45;;;0.10;;
52396;SDS011;38322;53.108;6.308;2024-03-02T06:53:42;1.05;;;0.10;;
52396;SDS011;38322;53.108;6.308;2024-03-02T06:56:08;0.50;;;0.10;;
52396;SDS011;38322;53.108;6.308;2024-03-02T06:58:34;2.00;;;0.10;;
52396;SDS011;38322;53.108;6.308;2024-03-02T07:01:00;0.52;;;0.10;;
52396;SDS011;38322;53.108;6.308;2024-03-02T07:03:26;1.02;;;0.20;;
52396;SDS011;38322;53.108;6.308;2024-03-02T07:05:52;0.50;;;0.10;;
52396;SDS011;38322;53.108;6.308;2024-03-02T07:08:17;0.20;;;0.10;;
52396;SDS011;38322;53.108;6.308;2024-03-02T07:10:43;0.90;;;0.10;;
52396;SDS011;38322;53.108;6.308;2024-03-02T07:13:09;1.35;;;0.15;;
52396;SDS011;38322;53.108;6.308;2024-03-02T07:15:35;0.55;;;0.10;;
52396;SDS011;38322;53.108;6.308;2024-03-02T07:18:02;1.40;;;0.60;;
52396;SDS011;38322;53.108;6.308;2024-03-02T07:20:29;1.55;;;0.10;;
52396;SDS011;38322;53.108;6.308;2024-03-02T07:22:55;0.88;;;0.20;;
52396;SDS011;38322;53.108;6.308;2024-03-02T07:25:21;0.60;;;0.20;;
52396;SDS011;38322;53.108;6.308;2024-03-02T07:27:46;0.68;;;0.10;;
52396;SDS011;38322;53.108;6.308;2024-03-02T07:30:14;0.47;;;0.20;;
52396;SDS011;38322;53.108;6.308;2024-03-02T07:32:41;1.90;;;0.40;;
52396;SDS011;38322;53.108;6.308;2024-03-02T07:35:11;1.92;;;0.40;;
52396;SDS011;38322;53.108;6.308;2024-03-02T07:37:39;1.52;;;0.75;;
52396;SDS011;38322;53.108;6.308;2024-03-02T07:40:06;1.08;;;0.30;;
52396;SDS011;38322;53.108;6.308;2024-03-02T07:42:36;0.93;;;0.52;;
52396;SDS011;38322;53.108;6.308;2024-03-02T07:45:04;0.65;;;0.25;;
52396;SDS011;38322;53.108;6.308;2024-03-02T07:47:31;3.63;;;0.30;;
52396;SDS011;38322;53.108;6.308;2024-03-02T07:49:59;1.23;;;0.40;;
52396;SDS011;38322;53.108;6.308;2024-03-02T07:52:25;1.30;;;1.20;;
52396;SDS011;38322;53.108;6.308;2024-03-02T07:54:51;2.30;;;0.20;;
52396;SDS011;38322;53.108;6.308;2024-03-02T07:57:16;1.17;;;0.38;;
52396;SDS011;38322;53.108;6.308;2024-03-02T07:59:42;1.13;;;0.20;;
52396;SDS011;38322;53.108;6.308;2024-03-02T08:02:08;0.60;;;0.25;;
52396;SDS011;38322;53.108;6.308;2024-03-02T08:04:35;0.30;;;0.10;;
52396;SDS011;38322;53.108;6.308;2024-03-02T08:07:02;1.58;;;0.15;;
52396;SDS011;38322;53.108;6.308;2024-03-02T08:09:28;3.45;;;0.20;;
52396;SDS011;38322;53.108;6.308;2024-03-02T08:11:54;0.43;;;0.10;;
52396;SDS011;38322;53.108;6.308;2024-03-02T08:14:21;0.63;;;0.40;;
52396;SDS011;38322;53.108;6.308;2024-03-02T08:16:47;1.10;;;0.17;;
52396;SDS011;38322;53.108;6.308;2024-03-02T08:19:13;0.60;;;0.17;;
52396;SDS011;38322;53.108;6.308;2024-03-02T08:21:39;0.82;;;0.10;;
52396;SDS011;38322;53.108;6.308;2024-03-02T08:24:05;1.92;;;0.10;;
52396;SDS011;38322;53.108;6.308;2024-03-02T08:26:31;0.60;;;0.38;;
52396;SDS011;38322;53.108;6.308;2024-03-02T08:28:58;1.45;;;0.20;;
52396;SDS011;38322;53.108;6.308;2024-03-02T08:31:26;1.63;;;0.13;;
52396;SDS011;38322;53.108;6.308;2024-03-02T08:33:53;2.25;;;0.17;;
52396;SDS011;38322;53.108;6.308;2024-03-02T08:36:19;0.50;;;0.10;;
52396;SDS011;38322;53.108;6.308;2024-03-02T08:38:46;3.63;;;0.60;;
52396;SDS011;38322;53.108;6.308;2024-03-02T08:41:13;3.70;;;0.13;;
52396;SDS011;38322;53.108;6.308;2024-03-02T08:43:41;0.63;;;0.10;;
52396;SDS011;38322;53.108;6.308;2024-03-02T08:46:07;2.28;;;0.15;;
52396;SDS011;38322;53.108;6.308;2024-03-02T08:48:34;1.95;;;0.60;;
52396;SDS011;38322;53.108;6.308;2024-03-02T08:50:59;0.98;;;0.10;;
52396;SDS011;38322;53.108;6.308;2024-03-02T08:53:25;1.27;;;0.30;;
52396;SDS011;38322;53.108;6.308;2024-03-02T08:55:51;0.70;;;0.10;;
52396;SDS011;38322;53.108;6.308;2024-03-02T08:58:17;0.20;;;0.10;;
52396;SDS011;38322;53.108;6.308;2024-03-02T09:00:43;1.95;;;0.10;;
52396;SDS011;38322;53.108;6.308;2024-03-02T09:03:09;1.08;;;0.10;;
52396;SDS011;38322;53.108;6.308;2024-03-02T09:05:35;2.30;;;0.13;;
52396;SDS011;38322;53.108;6.308;2024-03-02T09:08:01;0.60;;;0.17;;
52396;SDS011;38322;53.108;6.308;2024-03-02T09:10:28;1.27;;;0.40;;
52396;SDS011;38322;53.108;6.308;2024-03-02T09:12:54;1.05;;;0.10;;
52396;SDS011;38322;53.108;6.308;2024-03-02T09:15:20;0.40;;;0.10;;
52396;SDS011;38322;53.108;6.308;2024-03-02T09:17:46;3.05;;;0.10;;
52396;SDS011;38322;53.108;6.308;2024-03-02T09:20:12;2.63;;;0.50;;
52396;SDS011;38322;53.108;6.308;2024-03-02T09:22:39;1.30;;;0.68;;
52396;SDS011;38322;53.108;6.308;2024-03-02T09:25:05;1.02;;;0.10;;
52396;SDS011;38322;53.108;6.308;2024-03-02T09:27:36;1.98;;;0.20;;
52396;SDS011;38322;53.108;6.308;2024-03-02T09:30:04;0.55;;;0.10;;
52396;SDS011;38322;53.108;6.308;2024-03-02T09:32:32;2.03;;;0.30;;
52396;SDS011;38322;53.108;6.308;2024-03-02T09:34:58;2.05;;;0.90;;
52396;SDS011;38322;53.108;6.308;2024-03-02T09:37:24;1.00;;;0.25;;
52396;SDS011;38322;53.108;6.308;2024-03-02T09:39:50;0.43;;;0.10;;
52396;SDS011;38322;53.108;6.308;2024-03-02T09:42:17;4.13;;;0.40;;
52396;SDS011;38322;53.108;6.308;2024-03-02T09:44:44;3.17;;;0.10;;
52396;SDS011;38322;53.108;6.308;2024-03-02T09:47:10;5.95;;;0.10;;
52396;SDS011;38322;53.108;6.308;2024-03-02T09:49:36;3.50;;;0.10;;
52396;SDS011;38322;53.108;6.308;2024-03-02T09:52:02;2.72;;;0.10;;
52396;SDS011;38322;53.108;6.308;2024-03-02T09:54:30;1.88;;;0.30;;
52396;SDS011;38322;53.108;6.308;2024-03-02T09:56:56;1.02;;;0.10;;
52396;SDS011;38322;53.108;6.308;2024-03-02T09:59:22;2.72;;;0.40;;
52396;SDS011;38322;53.108;6.308;2024-03-02T10:01:58;2.15;;;0.30;;
52396;SDS011;38322;53.108;6.308;2024-03-02T10:04:26;0.68;;;0.20;;
52396;SDS011;38322;53.108;6.308;2024-03-02T10:07:11;1.60;;;0.30;;
52396;SDS011;38322;53.108;6.308;2024-03-02T10:09:38;1.30;;;0.40;;
52396;SDS011;38322;53.108;6.308;2024-03-02T10:12:05;1.23;;;0.45;;
52396;SDS011;38322;53.108;6.308;2024-03-02T10:14:32;1.00;;;0.20;;
52396;SDS011;38322;53.108;6.308;2024-03-02T10:17:02;2.92;;;0.60;;
52396;SDS011;38322;53.108;6.308;2024-03-02T10:19:30;0.55;;;0.10;;
52396;SDS011;38322;53.108;6.308;2024-03-02T10:21:58;0.43;;;0.10;;
52396;SDS011;38322;53.108;6.308;2024-03-02T10:24:25;0.75;;;0.17;;
52396;SDS011;38322;53.108;6.308;2024-03-02T10:26:51;0.85;;;0.10;;
52396;SDS011;38322;53.108;6.308;2024-03-02T10:29:17;3.75;;;0.40;;
52396;SDS011;38322;53.108;6.308;2024-03-02T10:31:44;2.28;;;0.35;;
52396;SDS011;38322;53.108;6.308;2024-03-02T10:34:11;1.20;;;0.40;;
52396;SDS011;38322;53.108;6.308;2024-03-02T10:36:40;5.80;;;1.48;;
52396;SDS011;38322;53.108;6.308;2024-03-02T10:39:07;2.97;;;0.35;;
52396;SDS011;38322;53.108;6.308;2024-03-02T10:41:34;0.85;;;0.20;;
52396;SDS011;38322;53.108;6.308;2024-03-02T10:44:02;1.70;;;0.20;;
52396;SDS011;38322;53.108;6.308;2024-03-02T10:46:30;1.10;;;0.10;;
52396;SDS011;38322;53.108;6.308;2024-03-02T10:48:58;1.30;;;0.57;;
52396;SDS011;38322;53.108;6.308;2024-03-02T10:51:26;2.40;;;0.30;;
52396;SDS011;38322;53.108;6.308;2024-03-02T10:53:56;4.93;;;0.67;;
52396;SDS011;38322;53.108;6.308;2024-03-02T10:56:26;1.95;;;0.13;;
52396;SDS011;38322;53.108;6.308;2024-03-02T10:58:55;5.30;;;0.20;;
52396;SDS011;38322;53.108;6.308;2024-03-02T11:01:29;1.35;;;0.10;;
52396;SDS011;38322;53.108;6.308;2024-03-02T11:03:58;0.55;;;0.17;;
52396;SDS011;38322;53.108;6.308;2024-03-02T11:06:26;1.02;;;0.55;;
52396;SDS011;38322;53.108;6.308;2024-03-02T11:08:54;1.77;;;0.45;;
52396;SDS011;38322;53.108;6.308;2024-03-02T11:11:27;2.47;;;0.20;;
52396;SDS011;38322;53.108;6.308;2024-03-02T11:13:55;1.17;;;0.20;;
52396;SDS011;38322;53.108;6.308;2024-03-02T11:19:02;3.45;;;0.20;;
52396;SDS011;38322;53.108;6.308;2024-03-02T11:21:35;3.47;;;1.20;;
52396;SDS011;38322;53.108;6.308;2024-03-02T11:26:47;3.40;;;0.13;;
52396;SDS011;38322;53.108;6.308;2024-03-02T11:32:01;5.63;;;0.20;;
52396;SDS011;38322;53.108;6.308;2024-03-02T11:34:30;1.20;;;0.10;;
52396;SDS011;38322;53.108;6.308;2024-03-02T11:36:58;2.33;;;0.32;;
52396;SDS011;38322;53.108;6.308;2024-03-02T11:39:26;6.80;;;0.57;;
52396;SDS011;38322;53.108;6.308;2024-03-02T11:41:53;3.42;;;0.40;;
52396;SDS011;38322;53.108;6.308;2024-03-02T11:44:20;3.70;;;0.57;;
52396;SDS011;38322;53.108;6.308;2024-03-02T11:46:52;2.03;;;0.20;;
52396;SDS011;38322;53.108;6.308;2024-03-02T11:49:38;1.30;;;0.47;;
52396;SDS011;38322;53.108;6.308;2024-03-02T11:52:05;1.23;;;0.10;;
52396;SDS011;38322;53.108;6.308;2024-03-02T11:54:32;1.52;;;0.65;;
52396;SDS011;38322;53.108;6.308;2024-03-02T11:57:01;1.30;;;0.25;;
52396;SDS011;38322;53.108;6.308;2024-03-02T11:59:29;5.15;;;0.28;;
52396;SDS011;38322;53.108;6.308;2024-03-02T12:01:55;1.35;;;0.20;;
52396;SDS011;38322;53.108;6.308;2024-03-02T12:04:24;3.03;;;0.73;;
52396;SDS011;38322;53.108;6.308;2024-03-02T12:06:54;2.15;;;0.20;;
52396;SDS011;38322;53.108;6.308;2024-03-02T12:09:21;0.70;;;0.60;;
52396;SDS011;38322;53.108;6.308;2024-03-02T12:11:47;2.72;;;0.28;;
52396;SDS011;38322;53.108;6.308;2024-03-02T12:14:13;2.78;;;0.30;;
52396;SDS011;38322;53.108;6.308;2024-03-02T12:16:43;2.83;;;0.10;;
52396;SDS011;38322;53.108;6.308;2024-03-02T12:19:09;3.70;;;0.32;;
52396;SDS011;38322;53.108;6.308;2024-03-02T12:21:35;1.60;;;0.10;;
52396;SDS011;38322;53.108;6.308;2024-03-02T12:24:02;1.67;;;1.05;;
52396;SDS011;38322;53.108;6.308;2024-03-02T12:26:28;1.10;;;0.50;;
52396;SDS011;38322;53.108;6.308;2024-03-02T12:28:55;0.40;;;0.10;;
52396;SDS011;38322;53.108;6.308;2024-03-02T12:31:22;1.45;;;0.30;;
52396;SDS011;38322;53.108;6.308;2024-03-02T12:33:48;2.22;;;0.40;;
52396;SDS011;38322;53.108;6.308;2024-03-02T12:36:15;1.45;;;0.40;;
52396;SDS011;38322;53.108;6.308;2024-03-02T12:38:43;2.03;;;0.90;;
52396;SDS011;38322;53.108;6.308;2024-03-02T12:41:10;1.70;;;0.17;;
52396;SDS011;38322;53.108;6.308;2024-03-02T12:43:35;1.10;;;0.10;;
52396;SDS011;38322;53.108;6.308;2024-03-02T12:46:03;3.40;;;0.10;;
52396;SDS011;38322;53.108;6.308;2024-03-02T12:48:29;4.85;;;0.73;;
52396;SDS011;38322;53.108;6.308;2024-03-02T12:50:56;0.90;;;0.38;;
52396;SDS011;38322;53.108;6.308;2024-03-02T12:53:22;3.80;;;0.30;;
52396;SDS011;38322;53.108;6.308;2024-03-02T12:55:47;1.48;;;0.40;;
52396;SDS011;38322;53.108;6.308;2024-03-02T12:58:16;1.85;;;1.10;;
52396;SDS011;38322;53.108;6.308;2024-03-02T13:00:44;1.25;;;0.30;;
52396;SDS011;38322;53.108;6.308;2024-03-02T13:03:11;0.80;;;0.10;;
52396;SDS011;38322;53.108;6.308;2024-03-02T13:05:37;2.08;;;0.40;;
52396;SDS011;38322;53.108;6.308;2024-03-02T13:08:04;2.90;;;0.40;;
52396;SDS011;38322;53.108;6.308;2024-03-02T13:10:32;4.30;;;0.30;;
52396;SDS011;38322;53.108;6.308;2024-03-02T13:12:58;1.42;;;0.20;;
52396;SDS011;38322;53.108;6.308;2024-03-02T13:15:26;1.13;;;0.20;;
52396;SDS011;38322;53.108;6.308;2024-03-02T13:17:52;0.82;;;0.20;;
52396;SDS011;38322;53.108;6.308;2024-03-02T13:20:18;4.00;;;0.30;;
52396;SDS011;38322;53.108;6.308;2024-03-02T13:22:45;2.40;;;0.82;;
52396;SDS011;38322;53.108;6.308;2024-03-02T13:25:11;5.90;;;1.00;;
52396;SDS011;38322;53.108;6.308;2024-03-02T13:27:37;1.08;;;0.20;;
52396;SDS011;38322;53.108;6.308;2024-03-02T13:30:04;3.08;;;0.85;;
52396;SDS011;38322;53.108;6.308;2024-03-02T13:32:31;1.73;;;0.35;;
52396;SDS011;38322;53.108;6.308;2024-03-02T13:34:58;3.92;;;1.50;;
52396;SDS011;38322;53.108;6.308;2024-03-02T13:37:23;3.83;;;0.50;;
52396;SDS011;38322;53.108;6.308;2024-03-02T13:39:49;3.85;;;0.93;;
52396;SDS011;38322;53.108;6.308;2024-03-02T13:42:15;1.67;;;0.60;;
52396;SDS011;38322;53.108;6.308;2024-03-02T13:44:43;2.65;;;0.40;;
52396;SDS011;38322;53.108;6.308;2024-03-02T13:47:12;3.78;;;1.40;;
52396;SDS011;38322;53.108;6.308;2024-03-02T13:49:38;1.60;;;0.63;;
52396;SDS011;38322;53.108;6.308;2024-03-02T13:52:08;4.18;;;0.68;;
52396;SDS011;38322;53.108;6.308;2024-03-02T13:54:37;1.83;;;0.60;;
52396;SDS011;38322;53.108;6.308;2024-03-02T13:57:04;0.82;;;0.63;;
52396;SDS011;38322;53.108;6.308;2024-03-02T13:59:31;1.48;;;0.73;;
52396;SDS011;38322;53.108;6.308;2024-03-02T14:01:57;6.40;;;1.10;;
52396;SDS011;38322;53.108;6.308;2024-03-02T14:04:23;2.20;;;0.65;;
52396;SDS011;38322;53.108;6.308;2024-03-02T14:06:49;3.50;;;0.55;;
52396;SDS011;38322;53.108;6.308;2024-03-02T14:09:14;2.10;;;0.60;;
52396;SDS011;38322;53.108;6.308;2024-03-02T14:11:40;5.15;;;1.17;;
52396;SDS011;38322;53.108;6.308;2024-03-02T14:14:06;1.70;;;0.70;;
52396;SDS011;38322;53.108;6.308;2024-03-02T14:16:32;1.80;;;0.65;;
52396;SDS011;38322;53.108;6.308;2024-03-02T14:18:59;2.88;;;1.33;;
52396;SDS011;38322;53.108;6.308;2024-03-02T14:21:24;1.42;;;0.80;;
52396;SDS011;38322;53.108;6.308;2024-03-02T14:23:50;4.10;;;1.02;;
52396;SDS011;38322;53.108;6.308;2024-03-02T14:26:16;2.53;;;1.13;;
52396;SDS011;38322;53.108;6.308;2024-03-02T14:28:43;9.48;;;1.20;;
52396;SDS011;38322;53.108;6.308;2024-03-02T14:31:09;4.68;;;1.83;;
52396;SDS011;38322;53.108;6.308;2024-03-02T14:33:34;3.42;;;2.17;;
52396;SDS011;38322;53.108;6.308;2024-03-02T14:36:01;3.40;;;2.90;;
52396;SDS011;38322;53.108;6.308;2024-03-02T14:38:26;5.32;;;2.55;;
52396;SDS011;38322;53.108;6.308;2024-03-02T14:40:54;4.07;;;2.33;;
52396;SDS011;38322;53.108;6.308;2024-03-02T14:43:20;3.30;;;3.00;;
52396;SDS011;38322;53.108;6.308;2024-03-02T14:45:46;3.25;;;2.60;;
52396;SDS011;38322;53.108;6.308;2024-03-02T14:48:12;3.33;;;3.03;;
52396;SDS011;38322;53.108;6.308;2024-03-02T14:50:37;3.60;;;2.83;;
52396;SDS011;38322;53.108;6.308;2024-03-02T14:53:03;3.20;;;2.85;;
52396;SDS011;38322;53.108;6.308;2024-03-02T14:55:32;6.72;;;3.40;;
52396;SDS011;38322;53.108;6.308;2024-03-02T14:57:59;3.40;;;2.60;;
52396;SDS011;38322;53.108;6.308;2024-03-02T15:00:25;4.20;;;2.50;;
52396;SDS011;38322;53.108;6.308;2024-03-02T15:02:51;4.40;;;2.17;;
52396;SDS011;38322;53.108;6.308;2024-03-02T15:05:17;4.93;;;2.60;;
52396;SDS011;38322;53.108;6.308;2024-03-02T15:07:43;1.67;;;1.52;;
52396;SDS011;38322;53.108;6.308;2024-03-02T15:10:09;4.50;;;1.88;;
52396;SDS011;38322;53.108;6.308;2024-03-02T15:12:35;2.67;;;1.33;;
52396;SDS011;38322;53.108;6.308;2024-03-02T15:15:01;2.53;;;1.85;;
52396;SDS011;38322;53.108;6.308;2024-03-02T15:17:28;3.05;;;1.40;;
52396;SDS011;38322;53.108;6.308;2024-03-02T15:19:54;2.25;;;1.42;;
52396;SDS011;38322;53.108;6.308;2024-03-02T15:22:19;3.17;;;1.45;;
52396;SDS011;38322;53.108;6.308;2024-03-02T15:24:45;4.50;;;1.10;;
52396;SDS011;38322;53.108;6.308;2024-03-02T15:27:11;1.63;;;0.95;;
52396;SDS011;38322;53.108;6.308;2024-03-02T15:29:38;4.10;;;1.35;;
52396;SDS011;38322;53.108;6.308;2024-03-02T15:32:05;3.30;;;0.93;;
52396;SDS011;38322;53.108;6.308;2024-03-02T15:34:32;2.42;;;0.95;;
52396;SDS011;38322;53.108;6.308;2024-03-02T15:36:58;3.65;;;1.30;;
52396;SDS011;38322;53.108;6.308;2024-03-02T15:39:25;4.03;;;1.50;;
52396;SDS011;38322;53.108;6.308;2024-03-02T15:41:51;1.88;;;0.95;;
52396;SDS011;38322;53.108;6.308;2024-03-02T15:44:17;3.45;;;1.50;;
52396;SDS011;38322;53.108;6.308;2024-03-02T15:46:43;2.28;;;1.00;;
52396;SDS011;38322;53.108;6.308;2024-03-02T15:49:09;3.58;;;0.80;;
52396;SDS011;38322;53.108;6.308;2024-03-02T15:51:35;2.03;;;1.13;;
52396;SDS011;38322;53.108;6.308;2024-03-02T15:54:06;2.97;;;0.85;;
52396;SDS011;38322;53.108;6.308;2024-03-02T15:56:33;2.45;;;1.48;;
52396;SDS011;38322;53.108;6.308;2024-03-02T15:58:59;1.77;;;1.20;;
52396;SDS011;38322;53.108;6.308;2024-03-02T16:01:25;2.58;;;0.93;;
52396;SDS011;38322;53.108;6.308;2024-03-02T16:03:51;2.38;;;1.50;;
52396;SDS011;38322;53.108;6.308;2024-03-02T16:06:17;2.35;;;1.20;;
52396;SDS011;38322;53.108;6.308;2024-03-02T16:08:43;1.50;;;1.23;;
52396;SDS011;38322;53.108;6.308;2024-03-02T16:11:09;5.20;;;1.15;;
52396;SDS011;38322;53.108;6.308;2024-03-02T16:13:35;4.35;;;1.58;;
52396;SDS011;38322;53.108;6.308;2024-03-02T16:16:01;4.47;;;1.98;;
52396;SDS011;38322;53.108;6.308;2024-03-02T16:18:27;5.00;;;1.35;;
52396;SDS011;38322;53.108;6.308;2024-03-02T16:20:53;1.92;;;1.40;;
52396;SDS011;38322;53.108;6.308;2024-03-02T16:23:19;5.25;;;2.65;;
52396;SDS011;38322;53.108;6.308;2024-03-02T16:25:45;4.30;;;1.30;;
52396;SDS011;38322;53.108;6.308;2024-03-02T16:28:11;1.67;;;1.23;;
52396;SDS011;38322;53.108;6.308;2024-03-02T16:30:37;3.92;;;1.65;;
52396;SDS011;38322;53.108;6.308;2024-03-02T16:33:02;4.13;;;2.33;;
52396;SDS011;38322;53.108;6.308;2024-03-02T16:35:28;1.77;;;1.58;;
52396;SDS011;38322;53.108;6.308;2024-03-02T16:37:54;5.35;;;2.00;;
52396;SDS011;38322;53.108;6.308;2024-03-02T16:40:20;4.63;;;1.98;;
52396;SDS011;38322;53.108;6.308;2024-03-02T16:42:46;3.83;;;2.17;;
52396;SDS011;38322;53.108;6.308;2024-03-02T16:45:12;3.05;;;1.98;;
52396;SDS011;38322;53.108;6.308;2024-03-02T16:47:39;1.70;;;1.48;;
52396;SDS011;38322;53.108;6.308;2024-03-02T16:50:05;2.38;;;2.17;;
52396;SDS011;38322;53.108;6.308;2024-03-02T16:52:33;4.20;;;1.60;;
52396;SDS011;38322;53.108;6.308;2024-03-02T16:54:59;2.33;;;1.80;;
52396;SDS011;38322;53.108;6.308;2024-03-02T16:57:25;2.67;;;1.33;;
52396;SDS011;38322;53.108;6.308;2024-03-02T16:59:53;3.60;;;1.80;;
52396;SDS011;38322;53.108;6.308;2024-03-02T17:02:19;2.88;;;2.03;;
52396;SDS011;38322;53.108;6.308;2024-03-02T17:04:45;3.92;;;3.08;;
52396;SDS011;38322;53.108;6.308;2024-03-02T17:07:11;3.15;;;1.67;;
52396;SDS011;38322;53.108;6.308;2024-03-02T17:09:37;8.35;;;2.55;;
52396;SDS011;38322;53.108;6.308;2024-03-02T17:12:03;5.22;;;2.83;;
52396;SDS011;38322;53.108;6.308;2024-03-02T17:14:29;2.55;;;1.70;;
52396;SDS011;38322;53.108;6.308;2024-03-02T17:16:55;3.42;;;2.25;;
52396;SDS011;38322;53.108;6.308;2024-03-02T17:19:21;5.18;;;2.63;;
52396;SDS011;38322;53.108;6.308;2024-03-02T17:21:47;8.93;;;4.85;;
52396;SDS011;38322;53.108;6.308;2024-03-02T17:24:13;7.13;;;3.30;;
52396;SDS011;38322;53.108;6.308;2024-03-02T17:26:39;4.05;;;2.80;;
52396;SDS011;38322;53.108;6.308;2024-03-02T17:29:05;8.20;;;5.95;;
52396;SDS011;38322;53.108;6.308;2024-03-02T17:31:31;9.25;;;4.95;;
52396;SDS011;38322;53.108;6.308;2024-03-02T17:33:57;7.40;;;4.75;;
52396;SDS011;38322;53.108;6.308;2024-03-02T17:36:23;6.90;;;4.28;;
52396;SDS011;38322;53.108;6.308;2024-03-02T17:38:49;7.47;;;5.00;;
52396;SDS011;38322;53.108;6.308;2024-03-02T17:41:15;6.65;;;3.88;;
52396;SDS011;38322;53.108;6.308;2024-03-02T17:43:41;3.72;;;2.33;;
52396;SDS011;38322;53.108;6.308;2024-03-02T17:46:07;4.07;;;2.83;;
52396;SDS011;38322;53.108;6.308;2024-03-02T17:48:33;7.75;;;4.00;;
52396;SDS011;38322;53.108;6.308;2024-03-02T17:50:59;3.85;;;2.72;;
52396;SDS011;38322;53.108;6.308;2024-03-02T17:53:25;4.50;;;2.75;;
52396;SDS011;38322;53.108;6.308;2024-03-02T17:55:51;9.90;;;3.10;;
52396;SDS011;38322;53.108;6.308;2024-03-02T17:58:16;4.45;;;2.88;;
52396;SDS011;38322;53.108;6.308;2024-03-02T18:00:42;4.93;;;3.25;;
52396;SDS011;38322;53.108;6.308;2024-03-02T18:03:10;6.30;;;3.88;;
52396;SDS011;38322;53.108;6.308;2024-03-02T18:05:36;6.82;;;3.25;;
52396;SDS011;38322;53.108;6.308;2024-03-02T18:08:02;4.15;;;3.65;;
52396;SDS011;38322;53.108;6.308;2024-03-02T18:10:28;4.28;;;2.70;;
52396;SDS011;38322;53.108;6.308;2024-03-02T18:12:54;4.07;;;3.22;;
52396;SDS011;38322;53.108;6.308;2024-03-02T18:15:21;4.18;;;3.58;;
52396;SDS011;38322;53.108;6.308;2024-03-02T18:17:48;5.05;;;2.75;;
52396;SDS011;38322;53.108;6.308;2024-03-02T18:20:14;4.65;;;2.97;;
52396;SDS011;38322;53.108;6.308;2024-03-02T18:22:40;2.90;;;2.53;;
52396;SDS011;38322;53.108;6.308;2024-03-02T18:25:06;4.20;;;3.03;;
52396;SDS011;38322;53.108;6.308;2024-03-02T18:27:33;4.60;;;3.20;;
52396;SDS011;38322;53.108;6.308;2024-03-02T18:29:59;5.28;;;2.78;;
52396;SDS011;38322;53.108;6.308;2024-03-02T18:32:25;4.50;;;3.33;;
52396;SDS011;38322;53.108;6.308;2024-03-02T18:34:51;2.70;;;1.95;;
52396;SDS011;38322;53.108;6.308;2024-03-02T18:37:17;6.28;;;2.75;;
52396;SDS011;38322;53.108;6.308;2024-03-02T18:39:47;3.80;;;2.60;;
52396;SDS011;38322;53.108;6.308;2024-03-02T18:42:14;4.05;;;2.63;;
52396;SDS011;38322;53.108;6.308;2024-03-02T18:44:41;3.20;;;2.80;;
52396;SDS011;38322;53.108;6.308;2024-03-02T18:47:07;3.90;;;2.88;;
52396;SDS011;38322;53.108;6.308;2024-03-02T18:49:33;3.53;;;3.00;;
52396;SDS011;38322;53.108;6.308;2024-03-02T18:51:58;4.03;;;2.90;;
52396;SDS011;38322;53.108;6.308;2024-03-02T18:54:24;3.15;;;1.95;;
52396;SDS011;38322;53.108;6.308;2024-03-02T18:56:51;2.88;;;2.08;;
52396;SDS011;38322;53.108;6.308;2024-03-02T18:59:16;2.70;;;2.33;;
52396;SDS011;38322;53.108;6.308;2024-03-02T19:01:42;4.22;;;2.53;;
52396;SDS011;38322;53.108;6.308;2024-03-02T19:04:08;4.30;;;1.95;;
52396;SDS011;38322;53.108;6.308;2024-03-02T19:06:34;4.25;;;3.05;;
52396;SDS011;38322;53.108;6.308;2024-03-02T19:09:00;2.65;;;1.88;;
52396;SDS011;38322;53.108;6.308;2024-03-02T19:11:26;4.40;;;1.73;;
52396;SDS011;38322;53.108;6.308;2024-03-02T19:13:52;2.00;;;1.40;;
52396;SDS011;38322;53.108;6.308;2024-03-02T19:16:18;4.30;;;2.25;;
52396;SDS011;38322;53.108;6.308;2024-03-02T19:18:44;4.65;;;1.85;;
52396;SDS011;38322;53.108;6.308;2024-03-02T19:21:10;2.72;;;1.65;;
52396;SDS011;38322;53.108;6.308;2024-03-02T19:23:36;2.45;;;1.38;;
52396;SDS011;38322;53.108;6.308;2024-03-02T19:26:02;2.80;;;1.55;;
52396;SDS011;38322;53.108;6.308;2024-03-02T19:28:29;2.42;;;2.20;;
52396;SDS011;38322;53.108;6.308;2024-03-02T19:30:55;2.60;;;1.88;;
52396;SDS011;38322;53.108;6.308;2024-03-02T19:33:21;2.70;;;1.25;;
52396;SDS011;38322;53.108;6.308;2024-03-02T19:35:47;5.63;;;1.35;;
52396;SDS011;38322;53.108;6.308;2024-03-02T19:38:13;2.35;;;1.45;;
52396;SDS011;38322;53.108;6.308;2024-03-02T19:40:39;2.00;;;1.80;;
52396;SDS011;38322;53.108;6.308;2024-03-02T19:43:05;4.38;;;2.25;;
52396;SDS011;38322;53.108;6.308;2024-03-02T19:45:31;3.05;;;1.95;;
52396;SDS011;38322;53.108;6.308;2024-03-02T19:47:57;2.40;;;1.52;;
52396;SDS011;38322;53.108;6.308;2024-03-02T19:50:23;2.70;;;1.92;;
52396;SDS011;38322;53.108;6.308;2024-03-02T19:52:49;2.33;;;1.77;;
52396;SDS011;38322;53.108;6.308;2024-03-02T19:55:15;5.38;;;2.00;;
52396;SDS011;38322;53.108;6.308;2024-03-02T19:57:42;2.80;;;1.75;;
52396;SDS011;38322;53.108;6.308;2024-03-02T20:00:13;3.33;;;1.42;;
52396;SDS011;38322;53.108;6.308;2024-03-02T20:02:40;2.35;;;1.88;;
52396;SDS011;38322;53.108;6.308;2024-03-02T20:05:07;3.00;;;2.03;;
52396;SDS011;38322;53.108;6.308;2024-03-02T20:07:33;2.83;;;2.13;;
52396;SDS011;38322;53.108;6.308;2024-03-02T20:10:01;3.10;;;2.20;;
52396;SDS011;38322;53.108;6.308;2024-03-02T20:12:32;3.15;;;2.47;;
52396;SDS011;38322;53.108;6.308;2024-03-02T20:14:58;2.58;;;1.60;;
52396;SDS011;38322;53.108;6.308;2024-03-02T20:17:24;2.85;;;1.98;;
52396;SDS011;38322;53.108;6.308;2024-03-02T20:19:51;3.00;;;2.05;;
52396;SDS011;38322;53.108;6.308;2024-03-02T20:22:17;4.88;;;2.67;;
52396;SDS011;38322;53.108;6.308;2024-03-02T20:24:43;3.55;;;2.58;;
52396;SDS011;38322;53.108;6.308;2024-03-02T20:27:08;4.15;;;2.47;;
52396;SDS011;38322;53.108;6.308;2024-03-02T20:29:34;4.32;;;2.47;;
52396;SDS011;38322;53.108;6.308;2024-03-02T20:32:00;4.60;;;3.03;;
52396;SDS011;38322;53.108;6.308;2024-03-02T20:34:27;3.28;;;2.70;;
52396;SDS011;38322;53.108;6.308;2024-03-02T20:36:52;5.40;;;2.88;;
52396;SDS011;38322;53.108;6.308;2024-03-02T20:39:18;5.20;;;3.10;;
52396;SDS011;38322;53.108;6.308;2024-03-02T20:41:44;3.70;;;2.42;;
52396;SDS011;38322;53.108;6.308;2024-03-02T20:44:10;5.60;;;3.45;;
52396;SDS011;38322;53.108;6.308;2024-03-02T20:46:40;4.15;;;3.08;;
52396;SDS011;38322;53.108;6.308;2024-03-02T20:49:06;4.43;;;2.80;;
52396;SDS011;38322;53.108;6.308;2024-03-02T20:51:32;4.90;;;2.88;;
52396;SDS011;38322;53.108;6.308;2024-03-02T20:53:58;4.72;;;3.28;;